sensor_id;sensor_type;location;lat;lon;timestamp;P1;durP1;ratioP1;P2;durP2;ratioP2
29958;SDS011;16815;51.100;6.516;2022-07-23T00:01:32;10.00;;;7.20;;
29958;SDS011;16815;51.100;6.516;2022-07-23T00:03:58;8.17;;;7.10;;
29958;SDS011;16815;51.100;6.516;2022-07-23T00:06:24;8.87;;;7.20;;
29958;SDS011;16815;51.100;6.516;2022-07-23T00:08:50;8.67;;;7.30;;
29958;SDS011;16815;51.100;6.516;2022-07-23T00:11:16;7.90;;;7.10;;
29958;SDS011;16815;51.100;6.516;2022-07-23T00:13:43;10.23;;;7.97;;
29958;SDS011;16815;51.100;6.516;2022-07-23T00:16:09;10.47;;;8.07;;
29958;SDS011;16815;51.100;6.516;2022-07-23T00:18:35;8.60;;;7.70;;
29958;SDS011;16815;51.100;6.516;2022-07-23T00:21:01;10.57;;;7.87;;
29958;SDS011;16815;51.100;6.516;2022-07-23T00:23:27;9.13;;;7.17;;
29958;SDS011;16815;51.100;6.516;2022-07-23T00:25:54;8.13;;;7.33;;
29958;SDS011;16815;51.100;6.516;2022-07-23T00:28:20;9.83;;;7.93;;
29958;SDS011;16815;51.100;6.516;2022-07-23T00:30:46;9.07;;;7.47;;
29958;SDS011;16815;51.100;6.516;2022-07-23T00:33:12;7.70;;;6.73;;
29958;SDS011;16815;51.100;6.516;2022-07-23T00:35:39;8.40;;;7.50;;
29958;SDS011;16815;51.100;6.516;2022-07-23T00:38:06;8.53;;;7.43;;
29958;SDS011;16815;51.100;6.516;2022-07-23T00:40:32;9.67;;;8.67;;
29958;SDS011;16815;51.100;6.516;2022-07-23T00:42:58;12.63;;;9.17;;
29958;SDS011;16815;51.100;6.516;2022-07-23T00:45:24;9.77;;;7.67;;
29958;SDS011;16815;51.100;6.516;2022-07-23T00:47:50;9.67;;;8.07;;
29958;SDS011;16815;51.100;6.516;2022-07-23T00:50:16;11.50;;;8.73;;
29958;SDS011;16815;51.100;6.516;2022-07-23T00:52:42;11.10;;;9.07;;
29958;SDS011;16815;51.100;6.516;2022-07-23T00:55:09;10.63;;;8.77;;
29958;SDS011;16815;51.100;6.516;2022-07-23T00:57:35;9.23;;;7.63;;
29958;SDS011;16815;51.100;6.516;2022-07-23T01:00:03;8.60;;;7.70;;
29958;SDS011;16815;51.100;6.516;2022-07-23T01:02:29;8.70;;;7.87;;
29958;SDS011;16815;51.100;6.516;2022-07-23T01:04:55;10.50;;;8.30;;
29958;SDS011;16815;51.100;6.516;2022-07-23T01:07:21;10.60;;;9.30;;
29958;SDS011;16815;51.100;6.516;2022-07-23T01:09:47;11.07;;;9.17;;
29958;SDS011;16815;51.100;6.516;2022-07-23T01:12:13;10.67;;;9.57;;
29958;SDS011;16815;51.100;6.516;2022-07-23T01:14:39;12.87;;;8.57;;
29958;SDS011;16815;51.100;6.516;2022-07-23T01:17:05;8.80;;;7.83;;
29958;SDS011;16815;51.100;6.516;2022-07-23T01:19:31;13.47;;;9.17;;
29958;SDS011;16815;51.100;6.516;2022-07-23T01:21:58;10.17;;;8.43;;
29958;SDS011;16815;51.100;6.516;2022-07-23T01:24:26;9.07;;;7.97;;
29958;SDS011;16815;51.100;6.516;2022-07-23T01:26:52;10.53;;;9.33;;
29958;SDS011;16815;51.100;6.516;2022-07-23T01:29:18;9.03;;;7.80;;
29958;SDS011;16815;51.100;6.516;2022-07-23T01:31:46;8.93;;;8.00;;
29958;SDS011;16815;51.100;6.516;2022-07-23T01:34:11;9.03;;;7.70;;
29958;SDS011;16815;51.100;6.516;2022-07-23T01:36:37;8.33;;;7.30;;
29958;SDS011;16815;51.100;6.516;2022-07-23T01:39:04;9.10;;;8.00;;
29958;SDS011;16815;51.100;6.516;2022-07-23T01:41:30;9.00;;;8.10;;
29958;SDS011;16815;51.100;6.516;2022-07-23T01:43:56;12.03;;;10.03;;
29958;SDS011;16815;51.100;6.516;2022-07-23T01:46:22;9.53;;;8.57;;
29958;SDS011;16815;51.100;6.516;2022-07-23T01:48:48;11.40;;;9.00;;
29958;SDS011;16815;51.100;6.516;2022-07-23T01:51:14;9.00;;;8.17;;
29958;SDS011;16815;51.100;6.516;2022-07-23T01:53:40;9.27;;;8.37;;
29958;SDS011;16815;51.100;6.516;2022-07-23T01:56:06;9.30;;;8.40;;
29958;SDS011;16815;51.100;6.516;2022-07-23T01:58:32;11.30;;;9.33;;
29958;SDS011;16815;51.100;6.516;2022-07-23T02:00:58;11.30;;;9.87;;
29958;SDS011;16815;51.100;6.516;2022-07-23T02:03:25;12.80;;;10.20;;
29958;SDS011;16815;51.100;6.516;2022-07-23T02:05:51;10.67;;;9.57;;
29958;SDS011;16815;51.100;6.516;2022-07-23T02:08:17;10.77;;;9.67;;
29958;SDS011;16815;51.100;6.516;2022-07-23T02:10:43;9.50;;;8.43;;
29958;SDS011;16815;51.100;6.516;2022-07-23T02:13:10;11.53;;;9.43;;
29958;SDS011;16815;51.100;6.516;2022-07-23T02:15:36;11.63;;;10.03;;
29958;SDS011;16815;51.100;6.516;2022-07-23T02:18:02;11.03;;;9.90;;
29958;SDS011;16815;51.100;6.516;2022-07-23T02:20:28;8.90;;;8.00;;
29958;SDS011;16815;51.100;6.516;2022-07-23T02:22:54;7.63;;;6.87;;
29958;SDS011;16815;51.100;6.516;2022-07-23T02:25:20;9.73;;;7.50;;
29958;SDS011;16815;51.100;6.516;2022-07-23T02:27:46;10.30;;;8.70;;
29958;SDS011;16815;51.100;6.516;2022-07-23T02:30:12;11.13;;;9.50;;
29958;SDS011;16815;51.100;6.516;2022-07-23T02:32:38;9.80;;;8.07;;
29958;SDS011;16815;51.100;6.516;2022-07-23T02:35:05;8.53;;;7.73;;
29958;SDS011;16815;51.100;6.516;2022-07-23T02:37:31;9.37;;;8.40;;
29958;SDS011;16815;51.100;6.516;2022-07-23T02:39:57;9.87;;;8.20;;
29958;SDS011;16815;51.100;6.516;2022-07-23T02:42:23;9.03;;;8.13;;
29958;SDS011;16815;51.100;6.516;2022-07-23T02:44:49;9.53;;;8.27;;
29958;SDS011;16815;51.100;6.516;2022-07-23T02:47:16;10.37;;;9.07;;
29958;SDS011;16815;51.100;6.516;2022-07-23T02:49:41;10.63;;;9.13;;
29958;SDS011;16815;51.100;6.516;2022-07-23T02:52:08;13.27;;;9.53;;
29958;SDS011;16815;51.100;6.516;2022-07-23T02:54:35;12.07;;;9.87;;
29958;SDS011;16815;51.100;6.516;2022-07-23T02:57:01;10.50;;;9.47;;
29958;SDS011;16815;51.100;6.516;2022-07-23T02:59:27;11.67;;;9.63;;
29958;SDS011;16815;51.100;6.516;2022-07-23T03:01:53;9.97;;;8.97;;
29958;SDS011;16815;51.100;6.516;2022-07-23T03:04:19;10.83;;;8.87;;
29958;SDS011;16815;51.100;6.516;2022-07-23T03:06:45;10.07;;;8.67;;
29958;SDS011;16815;51.100;6.516;2022-07-23T03:09:11;11.37;;;9.87;;
29958;SDS011;16815;51.100;6.516;2022-07-23T03:11:37;9.80;;;8.80;;
29958;SDS011;16815;51.100;6.516;2022-07-23T03:14:03;11.53;;;8.40;;
29958;SDS011;16815;51.100;6.516;2022-07-23T03:16:29;10.43;;;8.40;;
29958;SDS011;16815;51.100;6.516;2022-07-23T03:18:55;10.63;;;9.50;;
29958;SDS011;16815;51.100;6.516;2022-07-23T03:21:21;14.47;;;10.40;;
29958;SDS011;16815;51.100;6.516;2022-07-23T03:23:46;11.00;;;9.63;;
29958;SDS011;16815;51.100;6.516;2022-07-23T03:26:12;12.77;;;10.10;;
29958;SDS011;16815;51.100;6.516;2022-07-23T03:28:39;14.33;;;10.00;;
29958;SDS011;16815;51.100;6.516;2022-07-23T03:31:05;12.93;;;11.20;;
29958;SDS011;16815;51.100;6.516;2022-07-23T03:33:31;14.90;;;12.50;;
29958;SDS011;16815;51.100;6.516;2022-07-23T03:35:57;14.07;;;11.50;;
29958;SDS011;16815;51.100;6.516;2022-07-23T03:38:23;12.20;;;10.37;;
29958;SDS011;16815;51.100;6.516;2022-07-23T03:40:48;14.47;;;11.17;;
29958;SDS011;16815;51.100;6.516;2022-07-23T03:43:14;15.50;;;11.30;;
29958;SDS011;16815;51.100;6.516;2022-07-23T03:45:40;13.80;;;11.07;;
29958;SDS011;16815;51.100;6.516;2022-07-23T03:48:06;15.57;;;11.60;;
29958;SDS011;16815;51.100;6.516;2022-07-23T03:50:32;10.93;;;8.50;;
29958;SDS011;16815;51.100;6.516;2022-07-23T03:52:59;11.30;;;10.03;;
29958;SDS011;16815;51.100;6.516;2022-07-23T03:55:25;10.70;;;9.60;;
29958;SDS011;16815;51.100;6.516;2022-07-23T03:57:51;12.43;;;10.57;;
29958;SDS011;16815;51.100;6.516;2022-07-23T04:00:17;15.83;;;11.20;;
29958;SDS011;16815;51.100;6.516;2022-07-23T04:02:43;13.30;;;11.07;;
29958;SDS011;16815;51.100;6.516;2022-07-23T04:05:09;14.30;;;11.00;;
29958;SDS011;16815;51.100;6.516;2022-07-23T04:07:35;13.17;;;11.80;;
29958;SDS011;16815;51.100;6.516;2022-07-23T04:10:01;14.20;;;11.57;;
29958;SDS011;16815;51.100;6.516;2022-07-23T04:12:27;13.73;;;11.73;;
29958;SDS011;16815;51.100;6.516;2022-07-23T04:14:53;12.33;;;10.73;;
29958;SDS011;16815;51.100;6.516;2022-07-23T04:17:19;13.37;;;12.00;;
29958;SDS011;16815;51.100;6.516;2022-07-23T04:19:45;12.30;;;10.63;;
29958;SDS011;16815;51.100;6.516;2022-07-23T04:22:11;13.23;;;11.17;;
29958;SDS011;16815;51.100;6.516;2022-07-23T04:24:37;15.10;;;11.90;;
29958;SDS011;16815;51.100;6.516;2022-07-23T04:27:03;12.57;;;11.20;;
29958;SDS011;16815;51.100;6.516;2022-07-23T04:29:29;12.40;;;11.10;;
29958;SDS011;16815;51.100;6.516;2022-07-23T04:31:55;12.83;;;11.50;;
29958;SDS011;16815;51.100;6.516;2022-07-23T04:34:21;14.63;;;11.07;;
29958;SDS011;16815;51.100;6.516;2022-07-23T04:36:47;12.17;;;10.97;;
29958;SDS011;16815;51.100;6.516;2022-07-23T04:39:13;12.33;;;10.63;;
29958;SDS011;16815;51.100;6.516;2022-07-23T04:41:40;12.33;;;11.03;;
29958;SDS011;16815;51.100;6.516;2022-07-23T04:44:06;13.50;;;10.57;;
29958;SDS011;16815;51.100;6.516;2022-07-23T04:46:31;14.83;;;10.70;;
29958;SDS011;16815;51.100;6.516;2022-07-23T04:48:57;11.97;;;9.57;;
29958;SDS011;16815;51.100;6.516;2022-07-23T04:51:23;12.70;;;10.67;;
29958;SDS011;16815;51.100;6.516;2022-07-23T04:53:50;11.63;;;10.07;;
29958;SDS011;16815;51.100;6.516;2022-07-23T04:56:16;10.93;;;9.83;;
29958;SDS011;16815;51.100;6.516;2022-07-23T04:58:42;12.87;;;9.33;;
29958;SDS011;16815;51.100;6.516;2022-07-23T05:01:08;11.33;;;9.33;;
29958;SDS011;16815;51.100;6.516;2022-07-23T05:03:34;10.73;;;9.63;;
29958;SDS011;16815;51.100;6.516;2022-07-23T05:06:00;12.27;;;9.80;;
29958;SDS011;16815;51.100;6.516;2022-07-23T05:08:27;11.33;;;8.87;;
29958;SDS011;16815;51.100;6.516;2022-07-23T05:10:53;10.60;;;8.67;;
29958;SDS011;16815;51.100;6.516;2022-07-23T05:13:19;11.97;;;9.10;;
29958;SDS011;16815;51.100;6.516;2022-07-23T05:15:45;10.17;;;8.57;;
29958;SDS011;16815;51.100;6.516;2022-07-23T05:18:11;11.80;;;9.27;;
29958;SDS011;16815;51.100;6.516;2022-07-23T05:23:31;11.63;;;8.73;;
29958;SDS011;16815;51.100;6.516;2022-07-23T05:25:57;12.03;;;9.13;;
29958;SDS011;16815;51.100;6.516;2022-07-23T05:28:23;10.70;;;9.53;;
29958;SDS011;16815;51.100;6.516;2022-07-23T05:30:49;9.77;;;8.43;;
29958;SDS011;16815;51.100;6.516;2022-07-23T05:33:17;9.07;;;8.17;;
29958;SDS011;16815;51.100;6.516;2022-07-23T05:35:44;10.67;;;8.40;;
29958;SDS011;16815;51.100;6.516;2022-07-23T05:38:10;12.03;;;9.17;;
29958;SDS011;16815;51.100;6.516;2022-07-23T05:40:36;11.00;;;8.60;;
29958;SDS011;16815;51.100;6.516;2022-07-23T05:43:02;11.07;;;8.03;;
29958;SDS011;16815;51.100;6.516;2022-07-23T05:45:28;9.23;;;7.27;;
29958;SDS011;16815;51.100;6.516;2022-07-23T05:47:53;9.67;;;7.77;;
29958;SDS011;16815;51.100;6.516;2022-07-23T05:50:19;11.10;;;8.20;;
29958;SDS011;16815;51.100;6.516;2022-07-23T05:52:45;10.30;;;8.10;;
29958;SDS011;16815;51.100;6.516;2022-07-23T05:55:12;10.40;;;8.23;;
29958;SDS011;16815;51.100;6.516;2022-07-23T05:57:39;9.23;;;8.13;;
29958;SDS011;16815;51.100;6.516;2022-07-23T06:00:05;11.30;;;7.90;;
29958;SDS011;16815;51.100;6.516;2022-07-23T06:02:31;10.83;;;7.90;;
29958;SDS011;16815;51.100;6.516;2022-07-23T06:04:57;9.80;;;7.63;;
29958;SDS011;16815;51.100;6.516;2022-07-23T06:07:23;10.23;;;8.70;;
29958;SDS011;16815;51.100;6.516;2022-07-23T06:09:49;11.13;;;7.67;;
29958;SDS011;16815;51.100;6.516;2022-07-23T06:12:16;9.67;;;8.40;;
29958;SDS011;16815;51.100;6.516;2022-07-23T06:14:42;10.90;;;8.60;;
29958;SDS011;16815;51.100;6.516;2022-07-23T06:17:08;11.83;;;8.63;;
29958;SDS011;16815;51.100;6.516;2022-07-23T06:19:34;14.13;;;9.13;;
29958;SDS011;16815;51.100;6.516;2022-07-23T06:22:00;11.07;;;9.20;;
29958;SDS011;16815;51.100;6.516;2022-07-23T06:24:26;10.73;;;8.60;;
29958;SDS011;16815;51.100;6.516;2022-07-23T06:26:52;13.83;;;8.87;;
29958;SDS011;16815;51.100;6.516;2022-07-23T06:29:18;10.10;;;8.23;;
29958;SDS011;16815;51.100;6.516;2022-07-23T06:31:44;12.13;;;9.70;;
29958;SDS011;16815;51.100;6.516;2022-07-23T06:34:10;13.23;;;9.50;;
29958;SDS011;16815;51.100;6.516;2022-07-23T06:36:35;12.93;;;9.17;;
29958;SDS011;16815;51.100;6.516;2022-07-23T06:39:02;13.07;;;9.83;;
29958;SDS011;16815;51.100;6.516;2022-07-23T06:41:28;16.93;;;10.77;;
29958;SDS011;16815;51.100;6.516;2022-07-23T06:43:54;11.70;;;9.50;;
29958;SDS011;16815;51.100;6.516;2022-07-23T06:46:20;13.63;;;9.50;;
29958;SDS011;16815;51.100;6.516;2022-07-23T06:48:46;16.20;;;11.20;;
29958;SDS011;16815;51.100;6.516;2022-07-23T06:51:12;13.80;;;10.40;;
29958;SDS011;16815;51.100;6.516;2022-07-23T06:53:38;14.87;;;10.30;;
29958;SDS011;16815;51.100;6.516;2022-07-23T06:56:04;14.20;;;10.13;;
29958;SDS011;16815;51.100;6.516;2022-07-23T06:58:30;12.70;;;11.20;;
29958;SDS011;16815;51.100;6.516;2022-07-23T07:00:56;14.40;;;10.17;;
29958;SDS011;16815;51.100;6.516;2022-07-23T07:03:22;16.07;;;11.77;;
29958;SDS011;16815;51.100;6.516;2022-07-23T07:05:48;14.67;;;11.57;;
29958;SDS011;16815;51.100;6.516;2022-07-23T07:08:14;14.90;;;12.07;;
29958;SDS011;16815;51.100;6.516;2022-07-23T07:10:40;18.50;;;12.43;;
29958;SDS011;16815;51.100;6.516;2022-07-23T07:13:06;18.77;;;12.70;;
29958;SDS011;16815;51.100;6.516;2022-07-23T07:15:32;17.80;;;11.53;;
29958;SDS011;16815;51.100;6.516;2022-07-23T07:17:58;17.33;;;12.30;;
29958;SDS011;16815;51.100;6.516;2022-07-23T07:20:24;17.57;;;12.30;;
29958;SDS011;16815;51.100;6.516;2022-07-23T07:22:50;16.27;;;12.37;;
29958;SDS011;16815;51.100;6.516;2022-07-23T07:25:16;15.07;;;11.27;;
29958;SDS011;16815;51.100;6.516;2022-07-23T07:27:42;17.57;;;11.60;;
29958;SDS011;16815;51.100;6.516;2022-07-23T07:30:11;14.50;;;11.43;;
29958;SDS011;16815;51.100;6.516;2022-07-23T07:32:37;17.33;;;12.23;;
29958;SDS011;16815;51.100;6.516;2022-07-23T07:35:04;16.50;;;12.17;;
29958;SDS011;16815;51.100;6.516;2022-07-23T07:37:30;15.60;;;12.37;;
29958;SDS011;16815;51.100;6.516;2022-07-23T07:39:56;15.97;;;12.73;;
29958;SDS011;16815;51.100;6.516;2022-07-23T07:42:22;20.07;;;13.17;;
29958;SDS011;16815;51.100;6.516;2022-07-23T07:44:48;17.03;;;12.33;;
29958;SDS011;16815;51.100;6.516;2022-07-23T07:47:14;17.20;;;12.87;;
29958;SDS011;16815;51.100;6.516;2022-07-23T07:49:40;14.97;;;11.87;;
29958;SDS011;16815;51.100;6.516;2022-07-23T07:52:06;16.23;;;12.27;;
29958;SDS011;16815;51.100;6.516;2022-07-23T07:54:32;17.80;;;11.37;;
29958;SDS011;16815;51.100;6.516;2022-07-23T07:56:58;13.03;;;10.20;;
29958;SDS011;16815;51.100;6.516;2022-07-23T07:59:24;13.57;;;9.23;;
29958;SDS011;16815;51.100;6.516;2022-07-23T08:01:50;10.97;;;8.43;;
29958;SDS011;16815;51.100;6.516;2022-07-23T08:04:16;16.43;;;8.13;;
29958;SDS011;16815;51.100;6.516;2022-07-23T08:06:43;11.57;;;9.33;;
29958;SDS011;16815;51.100;6.516;2022-07-23T08:09:08;12.67;;;9.07;;
29958;SDS011;16815;51.100;6.516;2022-07-23T08:11:34;11.47;;;8.87;;
29958;SDS011;16815;51.100;6.516;2022-07-23T08:14:00;14.70;;;10.30;;
29958;SDS011;16815;51.100;6.516;2022-07-23T08:16:26;14.63;;;9.13;;
29958;SDS011;16815;51.100;6.516;2022-07-23T08:18:52;14.03;;;9.53;;
29958;SDS011;16815;51.100;6.516;2022-07-23T08:21:18;12.93;;;9.30;;
29958;SDS011;16815;51.100;6.516;2022-07-23T08:23:44;13.53;;;10.20;;
29958;SDS011;16815;51.100;6.516;2022-07-23T08:26:11;12.50;;;9.43;;
29958;SDS011;16815;51.100;6.516;2022-07-23T08:28:37;11.73;;;7.80;;
29958;SDS011;16815;51.100;6.516;2022-07-23T08:31:03;11.30;;;7.90;;
29958;SDS011;16815;51.100;6.516;2022-07-23T08:33:30;11.33;;;7.90;;
29958;SDS011;16815;51.100;6.516;2022-07-23T08:35:56;12.27;;;9.07;;
29958;SDS011;16815;51.100;6.516;2022-07-23T08:38:22;12.93;;;9.40;;
29958;SDS011;16815;51.100;6.516;2022-07-23T08:40:50;11.50;;;8.57;;
29958;SDS011;16815;51.100;6.516;2022-07-23T08:43:21;12.43;;;7.93;;
29958;SDS011;16815;51.100;6.516;2022-07-23T08:45:48;14.70;;;8.37;;
29958;SDS011;16815;51.100;6.516;2022-07-23T08:48:15;13.80;;;7.90;;
29958;SDS011;16815;51.100;6.516;2022-07-23T08:50:45;11.37;;;7.00;;
29958;SDS011;16815;51.100;6.516;2022-07-23T08:53:12;8.47;;;6.07;;
29958;SDS011;16815;51.100;6.516;2022-07-23T08:55:38;9.60;;;6.30;;
29958;SDS011;16815;51.100;6.516;2022-07-23T08:58:04;9.93;;;6.23;;
29958;SDS011;16815;51.100;6.516;2022-07-23T09:00:30;7.93;;;6.20;;
29958;SDS011;16815;51.100;6.516;2022-07-23T09:02:56;11.50;;;6.53;;
29958;SDS011;16815;51.100;6.516;2022-07-23T09:05:22;9.37;;;6.30;;
29958;SDS011;16815;51.100;6.516;2022-07-23T09:10:53;7.87;;;6.13;;
29958;SDS011;16815;51.100;6.516;2022-07-23T09:13:29;8.23;;;5.97;;
29958;SDS011;16815;51.100;6.516;2022-07-23T09:15:56;7.23;;;5.83;;
29958;SDS011;16815;51.100;6.516;2022-07-23T09:18:29;10.73;;;6.33;;
29958;SDS011;16815;51.100;6.516;2022-07-23T09:21:11;9.87;;;6.50;;
29958;SDS011;16815;51.100;6.516;2022-07-23T09:31:20;7.20;;;5.80;;
29958;SDS011;16815;51.100;6.516;2022-07-23T09:33:46;6.33;;;5.30;;
29958;SDS011;16815;51.100;6.516;2022-07-23T09:36:12;9.30;;;6.30;;
29958;SDS011;16815;51.100;6.516;2022-07-23T09:38:48;8.83;;;5.97;;
29958;SDS011;16815;51.100;6.516;2022-07-23T09:41:14;6.37;;;5.73;;
29958;SDS011;16815;51.100;6.516;2022-07-23T09:43:40;9.23;;;5.87;;
29958;SDS011;16815;51.100;6.516;2022-07-23T09:46:28;8.63;;;6.17;;
29958;SDS011;16815;51.100;6.516;2022-07-23T09:48:55;6.77;;;5.60;;
29958;SDS011;16815;51.100;6.516;2022-07-23T09:51:22;7.30;;;4.97;;
29958;SDS011;16815;51.100;6.516;2022-07-23T09:54:09;7.37;;;5.33;;
29958;SDS011;16815;51.100;6.516;2022-07-23T09:56:45;7.87;;;5.30;;
29958;SDS011;16815;51.100;6.516;2022-07-23T09:59:12;10.40;;;5.28;;
29958;SDS011;16815;51.100;6.516;2022-07-23T10:01:41;7.03;;;5.70;;
29958;SDS011;16815;51.100;6.516;2022-07-23T10:04:08;9.17;;;4.70;;
29958;SDS011;16815;51.100;6.516;2022-07-23T10:06:34;8.40;;;5.10;;
29958;SDS011;16815;51.100;6.516;2022-07-23T10:09:00;7.47;;;5.30;;
29958;SDS011;16815;51.100;6.516;2022-07-23T10:11:27;6.53;;;4.57;;
29958;SDS011;16815;51.100;6.516;2022-07-23T10:13:54;5.47;;;4.30;;
29958;SDS011;16815;51.100;6.516;2022-07-23T10:16:21;7.03;;;5.07;;
29958;SDS011;16815;51.100;6.516;2022-07-23T10:18:48;6.57;;;5.57;;
29958;SDS011;16815;51.100;6.516;2022-07-23T10:21:16;6.93;;;4.43;;
29958;SDS011;16815;51.100;6.516;2022-07-23T10:32:00;4.00;;;3.60;;
29958;SDS011;16815;51.100;6.516;2022-07-23T10:34:34;5.35;;;4.20;;
29958;SDS011;16815;51.100;6.516;2022-07-23T10:37:12;4.65;;;3.63;;
29958;SDS011;16815;51.100;6.516;2022-07-23T10:40:07;4.82;;;3.08;;
29958;SDS011;16815;51.100;6.516;2022-07-23T10:42:34;5.20;;;3.65;;
29958;SDS011;16815;51.100;6.516;2022-07-23T10:45:00;4.25;;;3.15;;
29958;SDS011;16815;51.100;6.516;2022-07-23T10:47:30;5.18;;;3.13;;
29958;SDS011;16815;51.100;6.516;2022-07-23T10:50:22;5.43;;;3.65;;
29958;SDS011;16815;51.100;6.516;2022-07-23T10:57:59;3.65;;;2.60;;
29958;SDS011;16815;51.100;6.516;2022-07-23T11:00:26;2.80;;;2.38;;
29958;SDS011;16815;51.100;6.516;2022-07-23T11:02:54;3.83;;;2.50;;
29958;SDS011;16815;51.100;6.516;2022-07-23T11:05:21;4.78;;;2.60;;
29958;SDS011;16815;51.100;6.516;2022-07-23T11:10:33;3.65;;;2.35;;
29958;SDS011;16815;51.100;6.516;2022-07-23T11:16:19;1.95;;;1.75;;
29958;SDS011;16815;51.100;6.516;2022-07-23T11:31:54;2.50;;;2.00;;
29958;SDS011;16815;51.100;6.516;2022-07-23T11:34:33;3.75;;;2.33;;
29958;SDS011;16815;51.100;6.516;2022-07-23T11:36:59;2.97;;;2.40;;
29958;SDS011;16815;51.100;6.516;2022-07-23T11:39:26;2.03;;;1.92;;
29958;SDS011;16815;51.100;6.516;2022-07-23T11:41:53;4.60;;;2.08;;
29958;SDS011;16815;51.100;6.516;2022-07-23T11:44:37;2.40;;;2.20;;
29958;SDS011;16815;51.100;6.516;2022-07-23T11:47:07;3.00;;;2.42;;
29958;SDS011;16815;51.100;6.516;2022-07-23T11:49:33;3.67;;;1.77;;
29958;SDS011;16815;51.100;6.516;2022-07-23T11:52:10;2.90;;;2.20;;
29958;SDS011;16815;51.100;6.516;2022-07-23T11:54:37;3.47;;;2.85;;
29958;SDS011;16815;51.100;6.516;2022-07-23T11:57:11;8.88;;;6.47;;
29958;SDS011;16815;51.100;6.516;2022-07-23T11:59:37;7.32;;;4.30;;
29958;SDS011;16815;51.100;6.516;2022-07-23T12:02:04;3.08;;;2.30;;
29958;SDS011;16815;51.100;6.516;2022-07-23T12:04:37;3.17;;;2.40;;
29958;SDS011;16815;51.100;6.516;2022-07-23T12:07:04;2.88;;;2.30;;
29958;SDS011;16815;51.100;6.516;2022-07-23T12:09:30;3.35;;;1.98;;
29958;SDS011;16815;51.100;6.516;2022-07-23T12:11:57;2.38;;;2.05;;
29958;SDS011;16815;51.100;6.516;2022-07-23T12:14:23;3.30;;;2.55;;
29958;SDS011;16815;51.100;6.516;2022-07-23T12:17:06;3.38;;;2.38;;
29958;SDS011;16815;51.100;6.516;2022-07-23T12:19:32;3.42;;;2.35;;
29958;SDS011;16815;51.100;6.516;2022-07-23T12:21:58;3.53;;;2.67;;
29958;SDS011;16815;51.100;6.516;2022-07-23T12:24:24;2.22;;;2.00;;
29958;SDS011;16815;51.100;6.516;2022-07-23T12:27:11;5.82;;;2.63;;
29958;SDS011;16815;51.100;6.516;2022-07-23T12:29:38;2.88;;;2.20;;
29958;SDS011;16815;51.100;6.516;2022-07-23T12:34:53;3.22;;;2.60;;
29958;SDS011;16815;51.100;6.516;2022-07-23T12:37:28;3.75;;;2.30;;
29958;SDS011;16815;51.100;6.516;2022-07-23T12:39:54;2.50;;;1.80;;
29958;SDS011;16815;51.100;6.516;2022-07-23T12:42:20;3.33;;;2.30;;
29958;SDS011;16815;51.100;6.516;2022-07-23T12:45:08;4.22;;;2.03;;
29958;SDS011;16815;51.100;6.516;2022-07-23T12:47:53;2.10;;;1.90;;
29958;SDS011;16815;51.100;6.516;2022-07-23T12:55:33;3.72;;;2.05;;
29958;SDS011;16815;51.100;6.516;2022-07-23T12:58:07;3.55;;;2.13;;
29958;SDS011;16815;51.100;6.516;2022-07-23T13:00:48;3.90;;;2.22;;
29958;SDS011;16815;51.100;6.516;2022-07-23T13:03:28;4.75;;;2.28;;
29958;SDS011;16815;51.100;6.516;2022-07-23T13:05:55;3.97;;;2.20;;
29958;SDS011;16815;51.100;6.516;2022-07-23T13:08:21;2.95;;;2.42;;
29958;SDS011;16815;51.100;6.516;2022-07-23T13:10:47;4.43;;;2.25;;
29958;SDS011;16815;51.100;6.516;2022-07-23T13:13:15;3.88;;;2.30;;
29958;SDS011;16815;51.100;6.516;2022-07-23T13:15:44;2.90;;;2.08;;
29958;SDS011;16815;51.100;6.516;2022-07-23T13:18:10;3.35;;;2.10;;
29958;SDS011;16815;51.100;6.516;2022-07-23T13:20:36;2.75;;;2.00;;
29958;SDS011;16815;51.100;6.516;2022-07-23T13:23:04;2.78;;;1.80;;
29958;SDS011;16815;51.100;6.516;2022-07-23T13:25:30;2.28;;;1.88;;
29958;SDS011;16815;51.100;6.516;2022-07-23T13:27:56;2.20;;;2.00;;
29958;SDS011;16815;51.100;6.516;2022-07-23T13:30:22;2.65;;;2.15;;
29958;SDS011;16815;51.100;6.516;2022-07-23T13:32:48;1.80;;;1.70;;
29958;SDS011;16815;51.100;6.516;2022-07-23T13:35:14;2.28;;;1.88;;
29958;SDS011;16815;51.100;6.516;2022-07-23T13:37:40;3.33;;;1.92;;
29958;SDS011;16815;51.100;6.516;2022-07-23T13:40:06;3.20;;;1.60;;
29958;SDS011;16815;51.100;6.516;2022-07-23T13:42:32;2.05;;;1.90;;
29958;SDS011;16815;51.100;6.516;2022-07-23T13:44:58;2.17;;;1.98;;
29958;SDS011;16815;51.100;6.516;2022-07-23T13:47:24;2.92;;;2.30;;
29958;SDS011;16815;51.100;6.516;2022-07-23T13:49:51;3.28;;;2.25;;
29958;SDS011;16815;51.100;6.516;2022-07-23T13:52:17;2.38;;;2.10;;
29958;SDS011;16815;51.100;6.516;2022-07-23T13:54:43;2.50;;;1.80;;
29958;SDS011;16815;51.100;6.516;2022-07-23T13:57:08;3.22;;;1.73;;
29958;SDS011;16815;51.100;6.516;2022-07-23T13:59:35;2.55;;;1.73;;
29958;SDS011;16815;51.100;6.516;2022-07-23T14:02:04;2.40;;;1.83;;
29958;SDS011;16815;51.100;6.516;2022-07-23T14:04:30;2.00;;;1.80;;
29958;SDS011;16815;51.100;6.516;2022-07-23T14:06:56;2.65;;;2.40;;
29958;SDS011;16815;51.100;6.516;2022-07-23T14:09:22;2.22;;;2.03;;
29958;SDS011;16815;51.100;6.516;2022-07-23T14:11:49;1.98;;;1.75;;
29958;SDS011;16815;51.100;6.516;2022-07-23T14:14:15;2.63;;;1.92;;
29958;SDS011;16815;51.100;6.516;2022-07-23T14:16:41;2.13;;;1.50;;
29958;SDS011;16815;51.100;6.516;2022-07-23T14:19:08;2.42;;;2.00;;
29958;SDS011;16815;51.100;6.516;2022-07-23T14:21:34;1.85;;;1.70;;
29958;SDS011;16815;51.100;6.516;2022-07-23T14:24:00;3.05;;;2.40;;
29958;SDS011;16815;51.100;6.516;2022-07-23T14:26:26;3.53;;;1.90;;
29958;SDS011;16815;51.100;6.516;2022-07-23T14:28:52;2.35;;;2.03;;
29958;SDS011;16815;51.100;6.516;2022-07-23T14:31:18;2.78;;;1.70;;
29958;SDS011;16815;51.100;6.516;2022-07-23T14:33:44;2.08;;;1.88;;
29958;SDS011;16815;51.100;6.516;2022-07-23T14:36:10;2.22;;;1.70;;
29958;SDS011;16815;51.100;6.516;2022-07-23T14:38:36;2.28;;;1.60;;
29958;SDS011;16815;51.100;6.516;2022-07-23T14:41:02;2.83;;;1.90;;
29958;SDS011;16815;51.100;6.516;2022-07-23T14:43:31;1.95;;;1.77;;
29958;SDS011;16815;51.100;6.516;2022-07-23T14:45:57;3.70;;;1.92;;
29958;SDS011;16815;51.100;6.516;2022-07-23T14:48:23;2.22;;;2.00;;
29958;SDS011;16815;51.100;6.516;2022-07-23T14:50:49;2.33;;;1.70;;
29958;SDS011;16815;51.100;6.516;2022-07-23T14:53:15;3.45;;;1.70;;
29958;SDS011;16815;51.100;6.516;2022-07-23T14:55:41;2.58;;;1.80;;
29958;SDS011;16815;51.100;6.516;2022-07-23T14:58:07;1.80;;;1.70;;
29958;SDS011;16815;51.100;6.516;2022-07-23T15:00:33;1.98;;;1.88;;
29958;SDS011;16815;51.100;6.516;2022-07-23T15:02:59;3.22;;;1.85;;
29958;SDS011;16815;51.100;6.516;2022-07-23T15:05:25;2.72;;;1.70;;
29958;SDS011;16815;51.100;6.516;2022-07-23T15:07:51;2.08;;;1.75;;
29958;SDS011;16815;51.100;6.516;2022-07-23T15:10:17;2.30;;;1.88;;
29958;SDS011;16815;51.100;6.516;2022-07-23T15:12:43;2.17;;;1.60;;
29958;SDS011;16815;51.100;6.516;2022-07-23T15:15:09;6.68;;;2.10;;
29958;SDS011;16815;51.100;6.516;2022-07-23T15:17:35;3.15;;;2.15;;
29958;SDS011;16815;51.100;6.516;2022-07-23T15:20:01;2.53;;;1.55;;
29958;SDS011;16815;51.100;6.516;2022-07-23T15:22:27;3.38;;;2.00;;
29958;SDS011;16815;51.100;6.516;2022-07-23T15:24:53;1.77;;;1.50;;
29958;SDS011;16815;51.100;6.516;2022-07-23T15:27:19;1.70;;;1.60;;
29958;SDS011;16815;51.100;6.516;2022-07-23T15:29:45;2.13;;;1.92;;
29958;SDS011;16815;51.100;6.516;2022-07-23T15:32:11;2.95;;;1.90;;